Time;durP1;ratioP1;P1;durP2;ratioP2;P2;SDS_P1;SDS_P2;PMS_P1;PMS_P2;Temp;Humidity;BMP_temperature;BMP_pressure;BME280_temperature;BME280_humidity;BME280_pressure;Samples;Min_cycle;Max_cycle;Signal;HPM_P1;HPM_P2
2022/02/27 00:00:28;;;;;;;;;;;;;;;;;;4957249;28;19926;-51
2022/02/27 00:02:55;;;;;;;;;;;1.00;99.90;;;;;;4962740;28;19989;-50
2022/02/27 00:05:22;;;;;;;;;;;;;;;;;;4952936;28;19989;-50
2022/02/27 00:07:48;;;;;;;;;;;1.30;99.90;;;;;;4953491;28;19934;-50
2022/02/27 00:10:19;;;;;;;;;;;1.30;99.90;;;;;;4952853;28;19930;-50
2022/02/27 00:12:46;;;;;;;;;;;;;;;;;;4952586;29;19926;-50
2022/02/27 00:15:13;;;;;;;;;;;1.60;99.90;;;;;;4952943;28;19974;-50
2022/02/27 00:17:40;;;;;;;;;;;;;;;;;;4952830;29;19989;-50
2022/02/27 00:20:08;;;;;;;;;;;1.50;99.90;;;;;;4959098;28;19936;-49
2022/02/27 00:22:35;;;;;;;;;;;;;;;;;;4958145;28;20020;-50
2022/02/27 00:25:02;;;;;;;;;;;;;;;;;;4965587;28;19974;-50
2022/02/27 00:27:31;;;;;;;;;;;0.70;99.90;;;;;;4987623;23;20568;-54
2022/02/27 00:29:57;;;;;;;;;;;0.50;99.90;;;;;;4962702;28;19927;-54
2022/02/27 00:32:24;;;;;;;;;;;;;;;;;;4957123;28;20473;-54
2022/02/27 00:34:51;;;;;;;;;;;0.10;99.90;;;;;;4958075;29;19927;-54
2022/02/27 00:37:18;;;;;;;;;;;0.10;99.90;;;;;;4957457;29;19958;-54
2022/02/27 00:39:45;;;;;;;;;;;;;;;;;;4957557;28;19981;-54
2022/02/27 00:42:11;;;;;;;;;;;-0.10;99.90;;;;;;4957428;29;19952;-55
2022/02/27 00:44:39;;;;;;;;;;;-0.20;99.90;;;;;;4957392;28;20009;-54
2022/02/27 00:47:07;;;;;;;;;;;-0.20;99.90;;;;;;4957273;29;19990;-54
2022/02/27 00:49:34;;;;;;;;;;;-0.10;99.90;;;;;;4957825;29;20437;-54
2022/02/27 00:52:01;;;;;;;;;;;;;;;;;;4958113;28;20315;-54
2022/02/27 00:54:28;;;;;;;;;;;-0.20;99.90;;;;;;4957201;29;19982;-54
2022/02/27 00:56:55;;;;;;;;;;;;;;;;;;4958123;28;20363;-54
2022/02/27 00:59:22;;;;;;;;;;;-0.20;99.90;;;;;;4957817;29;19974;-54
2022/02/27 01:01:49;;;;;;;;;;;;;;;;;;4957780;28;19926;-54
2022/02/27 01:04:17;;;;;;;;;;;-0.10;99.90;;;;;;4957402;29;20326;-54
2022/02/27 01:06:44;;;;;;;;;;;0.00;99.90;;;;;;4957670;29;19981;-54
2022/02/27 01:09:10;;;;;;;;;;;0.00;99.90;;;;;;4956785;29;20394;-54
2022/02/27 01:11:37;;;;;;;;;;;;;;;;;;4957865;28;19926;-54
2022/02/27 01:14:04;;;;;;;;;;;-0.20;99.90;;;;;;4957434;28;19926;-54
2022/02/27 01:16:31;;;;;;;;;;;-0.10;99.90;;;;;;4957820;29;20044;-54
2022/02/27 01:18:58;;;;;;;;;;;;;;;;;;4957560;28;20394;-55
2022/02/27 01:21:26;;;;;;;;;;;-0.10;99.90;;;;;;4957376;28;19973;-54
2022/02/27 01:23:53;;;;;;;;;;;-0.10;99.90;;;;;;4957391;28;19926;-55
2022/02/27 01:26:20;;;;;;;;;;;;;;;;;;4958007;28;19990;-54
2022/02/27 01:28:46;;;;;;;;;;;-0.20;99.90;;;;;;4957323;29;19974;-54
2022/02/27 01:31:13;;;;;;;;;;;-0.10;99.90;;;;;;4957355;29;19926;-54
2022/02/27 01:33:40;;;;;;;;;;;;;;;;;;4957135;29;19985;-54
2022/02/27 01:36:07;;;;;;;;;;;0.50;99.90;;;;;;4957590;29;19930;-54
2022/02/27 01:38:34;;;;;;;;;;;;;;;;;;4946211;29;19927;-58
2022/02/27 01:41:02;;;;;;;;;;;0.30;99.90;;;;;;4955437;29;19927;-54
2022/02/27 01:43:29;;;;;;;;;;;0.10;99.90;;;;;;4957344;28;19981;-54
2022/02/27 01:45:56;;;;;;;;;;;-0.10;99.90;;;;;;4957381;29;19910;-54
2022/02/27 01:48:23;;;;;;;;;;;;;;;;;;4947516;29;19926;-56
2022/02/27 01:50:49;;;;;;;;;;;-0.40;99.90;;;;;;4938046;29;19986;-54
2022/02/27 01:53:16;;;;;;;;;;;;;;;;;;4937466;29;19934;-54
2022/02/27 01:55:43;;;;;;;;;;;-0.60;99.90;;;;;;4938086;29;20449;-54
2022/02/27 01:58:14;;;;;;;;;;;-0.50;99.90;;;;;;4948282;29;19930;-54
2022/02/27 02:00:41;;;;;;;;;;;;;;;;;;4957279;28;20372;-54
2022/02/27 02:03:08;;;;;;;;;;;-0.60;99.90;;;;;;4956693;29;19938;-55
2022/02/27 02:05:35;;;;;;;;;;;;;;;;;;4956637;29;19927;-54
2022/02/27 02:08:02;;;;;;;;;;;-0.60;99.90;;;;;;4950188;28;19986;-54
2022/02/27 02:10:29;;;;;;;;;;;;;;;;;;4945735;29;19982;-54
2022/02/27 02:12:56;;;;;;;;;;;-0.70;99.90;;;;;;4937696;29;19990;-54
2022/02/27 02:15:24;;;;;;;;;;;-0.60;99.90;;;;;;4937039;29;19933;-55
2022/02/27 02:17:50;;;;;;;;;;;-0.50;99.90;;;;;;4937218;29;19931;-54
2022/02/27 02:20:17;;;;;;;;;;;;;;;;;;4937670;29;20395;-54
2022/02/27 02:22:46;;;;;;;;;;;-0.50;99.90;;;;;;4951477;29;19927;-54
2022/02/27 02:25:12;;;;;;;;;;;-0.50;99.90;;;;;;4956247;28;19951;-55
2022/02/27 02:27:39;;;;;;;;;;;;;;;;;;4955613;28;19926;-54
2022/02/27 02:30:09;;;;;;;;;;;-0.40;99.90;;;;;;4956280;29;19927;-54
2022/02/27 02:32:36;;;;;;;;;;;;;;;;;;4956292;29;20049;-54
2022/02/27 02:35:03;;;;;;;;;;;-0.50;99.90;;;;;;4938808;29;19927;-54
2022/02/27 02:37:30;;;;;;;;;;;;;;;;;;4938366;29;20335;-54
2022/02/27 02:39:58;;;;;;;;;;;0.20;99.90;;;;;;4955592;29;19974;-54
2022/02/27 02:42:25;;;;;;;;;;;0.20;99.90;;;;;;4955702;29;19990;-54
2022/02/27 02:44:51;;;;;;;;;;;-0.10;99.90;;;;;;4955384;28;19926;-54
2022/02/27 02:47:21;;;;;;;;;;;;;;;;;;4955686;28;20457;-54
2022/02/27 02:49:47;;;;;;;;;;;-0.60;99.90;;;;;;4941190;29;19933;-54
2022/02/27 02:52:15;;;;;;;;;;;;;;;;;;4947305;28;19927;-55
2022/02/27 02:54:42;;;;;;;;;;;-0.80;99.90;;;;;;4935925;29;20306;-54
2022/02/27 02:57:09;;;;;;;;;;;;;;;;;;4936335;29;20060;-54
2022/02/27 02:59:37;;;;;;;;;;;0.10;99.90;;;;;;4952682;29;20339;-54
2022/02/27 03:02:09;;;;;;;;;;;-0.20;99.90;;;;;;4955091;29;20350;-54
2022/02/27 03:04:36;;;;;;;;;;;-0.50;99.90;;;;;;4954914;29;19927;-54
2022/02/27 03:07:03;;;;;;;;;;;;;;;;;;4953858;28;20043;-54
2022/02/27 03:09:30;;;;;;;;;;;-0.70;99.90;;;;;;4953501;28;19934;-54
2022/02/27 03:11:56;;;;;;;;;;;-0.80;99.90;;;;;;4954969;29;19993;-54
2022/02/27 03:14:23;;;;;;;;;;;;;;;;;;4955286;28;20333;-54
2022/02/27 03:16:51;;;;;;;;;;;-1.00;99.90;;;;;;4955632;28;19981;-54
2022/02/27 03:19:18;;;;;;;;;;;-1.00;99.90;;;;;;4940678;29;20005;-55
2022/02/27 03:21:45;;;;;;;;;;;;;;;;;;4936257;29;19974;-54
2022/02/27 03:24:12;;;;;;;;;;;-0.70;99.90;;;;;;4935677;29;19926;-54
2022/02/27 03:26:38;;;;;;;;;;;-0.80;99.90;;;;;;4953952;29;19926;-54
2022/02/27 03:29:05;;;;;;;;;;;;;;;;;;4942189;29;20394;-54
2022/02/27 03:31:33;;;;;;;;;;;-0.90;99.90;;;;;;4946208;29;19981;-54
2022/02/27 03:34:02;;;;;;;;;;;-1.00;99.90;;;;;;4954825;28;20130;-54
2022/02/27 03:36:28;;;;;;;;;;;-1.10;99.90;;;;;;4955224;29;19926;-54
2022/02/27 03:38:55;;;;;;;;;;;;;;;;;;4943655;29;19927;-55
2022/02/27 03:41:22;;;;;;;;;;;-1.00;99.90;;;;;;4936013;29;19931;-54
2022/02/27 03:43:49;;;;;;;;;;;-1.10;99.90;;;;;;4935944;29;19959;-54
2022/02/27 03:46:16;;;;;;;;;;;;;;;;;;4935889;29;19990;-54
2022/02/27 03:48:42;;;;;;;;;;;-1.20;99.90;;;;;;4944380;29;19926;-54
2022/02/27 03:51:11;;;;;;;;;;;-1.20;99.90;;;;;;4954061;29;19974;-54
2022/02/27 03:53:37;;;;;;;;;;;-1.20;99.90;;;;;;4954325;28;19993;-54
2022/02/27 03:56:04;;;;;;;;;;;;;;;;;;4954974;29;19926;-55
2022/02/27 03:58:31;;;;;;;;;;;-1.10;99.90;;;;;;4954117;29;19977;-54
2022/02/27 04:00:58;;;;;;;;;;;-1.20;99.90;;;;;;4954857;29;19939;-54
2022/02/27 04:03:25;;;;;;;;;;;;;;;;;;4954590;28;20437;-54
2022/02/27 04:05:52;;;;;;;;;;;;;;;;;;4955062;28;19930;-54
2022/02/27 04:08:19;;;;;;;;;;;;;;;;;;4953367;29;19931;-54
2022/02/27 04:10:47;;;;;;;;;;;-1.20;99.90;;;;;;4947043;28;20354;-54
2022/02/27 04:13:13;;;;;;;;;;;-1.10;99.90;;;;;;4957728;28;19981;-56
2022/02/27 04:15:40;;;;;;;;;;;-1.00;99.90;;;;;;4957946;28;20406;-55
2022/02/27 04:18:07;;;;;;;;;;;;;;;;;;4957579;28;19931;-54
2022/02/27 04:20:34;;;;;;;;;;;-0.90;99.90;;;;;;4958197;29;19950;-54
2022/02/27 04:23:01;;;;;;;;;;;;;;;;;;4958649;28;19935;-54
2022/02/27 04:25:28;;;;;;;;;;;-1.00;99.90;;;;;;4958236;29;20414;-54
2022/02/27 04:27:56;;;;;;;;;;;-1.10;99.90;;;;;;4956576;28;19926;-54
2022/02/27 04:30:23;;;;;;;;;;;;;;;;;;4942800;29;19926;-54
2022/02/27 04:32:50;;;;;;;;;;;-1.00;99.90;;;;;;4957735;28;20367;-55
2022/02/27 04:35:17;;;;;;;;;;;;;;;;;;4955840;28;19927;-54
2022/02/27 04:37:44;;;;;;;;;;;-1.00;99.90;;;;;;4956192;29;19977;-54
2022/02/27 04:40:11;;;;;;;;;;;;;;;;;;4955919;28;19954;-54
2022/02/27 04:42:39;;;;;;;;;;;-0.90;99.90;;;;;;4946538;29;19926;-54
2022/02/27 04:45:05;;;;;;;;;;;;;;;;;;4956663;28;19926;-54
2022/02/27 04:47:34;;;;;;;;;;;-1.30;99.90;;;;;;4949208;29;20346;-54
2022/02/27 04:50:00;;;;;;;;;;;-0.90;99.90;;;;;;4950706;28;19960;-54
2022/02/27 04:52:27;;;;;;;;;;;-1.00;99.90;;;;;;4941699;29;19926;-54
2022/02/27 04:54:54;;;;;;;;;;;;;;;;;;4938049;29;19931;-54
2022/02/27 04:57:21;;;;;;;;;;;-1.40;99.90;;;;;;4951647;29;19986;-54
2022/02/27 04:59:48;;;;;;;;;;;;;;;;;;4947106;28;19927;-54
2022/02/27 05:02:15;;;;;;;;;;;;;;;;;;4938392;29;19987;-54
2022/02/27 05:04:42;;;;;;;;;;;;;;;;;;4938274;29;19930;-54
2022/02/27 05:07:10;;;;;;;;;;;-1.40;99.90;;;;;;4943852;29;19974;-54
2022/02/27 05:09:37;;;;;;;;;;;-1.50;99.90;;;;;;4950490;28;20306;-54
2022/02/27 05:12:04;;;;;;;;;;;;;;;;;;4945936;29;20346;-54
2022/02/27 05:14:31;;;;;;;;;;;-1.50;99.90;;;;;;4955969;29;19931;-53
2022/02/27 05:16:58;;;;;;;;;;;-1.50;99.90;;;;;;4955484;28;20251;-54
2022/02/27 05:19:25;;;;;;;;;;;;;;;;;;4951432;28;19974;-54
2022/02/27 05:21:52;;;;;;;;;;;;;;;;;;4937977;29;19986;-54
2022/02/27 05:24:19;;;;;;;;;;;;;;;;;;4960280;28;19926;-54
2022/02/27 05:26:47;;;;;;;;;;;-1.50;99.90;;;;;;4957157;28;19926;-54
2022/02/27 05:29:14;;;;;;;;;;;-1.50;99.90;;;;;;4946107;29;19930;-54
2022/02/27 05:31:41;;;;;;;;;;;;;;;;;;4953136;28;20355;-54
2022/02/27 05:34:09;;;;;;;;;;;-1.50;99.90;;;;;;4945781;29;19930;-54
2022/02/27 05:36:36;;;;;;;;;;;-1.50;99.90;;;;;;4940221;29;20373;-54
2022/02/27 05:39:03;;;;;;;;;;;;;;;;;;4949517;29;19930;-54
2022/02/27 05:41:30;;;;;;;;;;;-1.60;99.90;;;;;;4955735;28;20465;-54
2022/02/27 05:43:57;;;;;;;;;;;;;;;;;;4953057;29;19930;-54
2022/02/27 05:46:25;;;;;;;;;;;-1.90;99.90;;;;;;4946324;29;20002;-54
2022/02/27 05:48:52;;;;;;;;;;;-1.40;99.90;;;;;;4955064;29;19934;-54
2022/02/27 05:51:19;;;;;;;;;;;;;;;;;;4948209;28;20302;-54
2022/02/27 05:53:46;;;;;;;;;;;-1.50;99.90;;;;;;4954590;29;19973;-54
2022/02/27 05:56:14;;;;;;;;;;;-1.40;99.90;;;;;;4956079;28;19973;-55
2022/02/27 05:58:40;;;;;;;;;;;-1.60;99.90;;;;;;4952686;28;20283;-56
2022/02/27 06:01:07;;;;;;;;;;;;;;;;;;4955385;28;20374;-54
2022/02/27 06:03:36;;;;;;;;;;;-1.90;99.90;;;;;;4952113;29;19982;-53
2022/02/27 06:06:02;;;;;;;;;;;-1.80;99.90;;;;;;4955071;28;19986;-54
2022/02/27 06:08:30;;;;;;;;;;;;;;;;;;4942571;28;20371;-53
2022/02/27 06:10:57;;;;;;;;;;;-1.80;99.90;;;;;;4954833;29;20025;-54
2022/02/27 06:13:24;;;;;;;;;;;;;;;;;;4954753;28;19927;-54
2022/02/27 06:15:51;;;;;;;;;;;-1.80;99.90;;;;;;4954858;29;19926;-53
2022/02/27 06:18:18;;;;;;;;;;;;;;;;;;4946841;28;19930;-53
2022/02/27 06:20:46;;;;;;;;;;;-1.90;99.90;;;;;;4947403;29;19978;-56
2022/02/27 06:23:13;;;;;;;;;;;-1.80;99.90;;;;;;4954023;28;20414;-54
2022/02/27 06:25:40;;;;;;;;;;;;;;;;;;4954673;28;19926;-54
2022/02/27 06:28:07;;;;;;;;;;;-1.60;99.90;;;;;;4975875;23;19927;-51
2022/02/27 06:30:34;;;;;;;;;;;;;;;;;;4945183;28;19981;-51
2022/02/27 06:33:01;;;;;;;;;;;;;;;;;;4937689;28;19927;-51
2022/02/27 06:35:28;;;;;;;;;;;;;;;;;;4939780;29;19989;-51
2022/02/27 06:37:55;;;;;;;;;;;;;;;;;;4940155;28;19974;-51
2022/02/27 06:40:23;;;;;;;;;;;-1.20;99.90;;;;;;4955281;28;20352;-51
2022/02/27 06:42:50;;;;;;;;;;;;;;;;;;4949502;28;19994;-51
2022/02/27 06:45:17;;;;;;;;;;;;;;;;;;4942841;29;19926;-51
2022/02/27 06:47:44;;;;;;;;;;;;;;;;;;4952012;29;19926;-50
2022/02/27 06:50:11;;;;;;;;;;;-0.20;99.90;;;;;;4950481;29;19981;-50
2022/02/27 06:52:38;;;;;;;;;;;;;;;;;;4937751;29;19927;-51
2022/02/27 06:55:05;;;;;;;;;;;;;;;;;;4949437;29;19930;-50
2022/02/27 06:57:33;;;;;;;;;;;2.30;99.90;;;;;;4952810;29;19975;-51
2022/02/27 07:00:00;;;;;;;;;;;;;;;;;;4952607;28;19927;-50
2022/02/27 07:02:27;;;;;;;;;;;;;;;;;;4952144;28;19926;-50
2022/02/27 07:04:54;;;;;;;;;;;5.80;99.90;;;;;;4948981;29;19982;-50
2022/02/27 07:07:21;;;;;;;;;;;;;;;;;;4951259;29;20222;-50
2022/02/27 07:09:48;;;;;;;;;;;6.40;99.90;;;;;;4952981;28;19926;-51
2022/02/27 07:12:15;;;;;;;;;;;;;;;;;;4952847;28;20020;-50
2022/02/27 07:14:43;;;;;;;;;;;5.80;99.90;;;;;;4944612;29;20041;-51
2022/02/27 07:17:11;;;;;;;;;;;6.10;99.90;;;;;;4940913;28;20349;-51
2022/02/27 07:19:38;;;;;;;;;;;;;;;;;;4940032;28;19931;-50
2022/02/27 07:22:05;;;;;;;;;;;;;;;;;;4946352;29;20024;-51
2022/02/27 07:24:32;;;;;;;;;;;5.10;99.90;;;;;;4948592;29;20069;-51
2022/02/27 07:26:59;;;;;;;;;;;;;;;;;;4952231;28;19981;-49
2022/02/27 07:29:26;;;;;;;;;;;5.40;99.90;;;;;;4951918;29;20349;-49
2022/02/27 07:31:54;;;;;;;;;;;6.10;99.90;;;;;;4951844;28;20378;-48
2022/02/27 07:34:21;;;;;;;;;;;6.20;99.90;;;;;;4948437;29;19930;-49
2022/02/27 07:36:51;;;;;;;;;;;;;;;;;;4936423;28;19978;-48
2022/02/27 07:39:17;;;;;;;;;;;5.80;99.90;;;;;;4939917;29;19969;-48
2022/02/27 07:41:45;;;;;;;;;;;;;;;;;;4951682;28;19985;-48
2022/02/27 07:44:12;;;;;;;;;;;;;;;;;;4952267;29;19933;-49
2022/02/27 07:46:38;;;;;;;;;;;7.60;99.90;;;;;;4952541;29;20287;-49
2022/02/27 07:49:07;;;;;;;;;;;8.10;99.90;;;;;;4955263;28;19993;-49
2022/02/27 07:51:34;;;;;;;;;;;8.60;99.90;;;;;;4953009;28;20361;-49
2022/02/27 07:54:01;;;;;;;;;;;8.70;99.90;;;;;;4941537;28;19926;-49
2022/02/27 07:56:27;;;;;;;;;;;9.00;99.90;;;;;;4951339;28;19927;-49
2022/02/27 07:58:55;;;;;;;;;;;9.30;99.90;;;;;;4952698;28;19977;-49
2022/02/27 08:01:22;;;;;;;;;;;9.50;99.90;;;;;;4952411;28;19926;-49
2022/02/27 08:03:48;;;;;;;;;;;10.10;99.90;;;;;;4952729;29;20001;-48
2022/02/27 08:06:16;;;;;;;;;;;10.90;99.90;;;;;;4953272;28;19927;-49
2022/02/27 08:08:45;;;;;;;;;;;11.30;98.20;;;;;;4951206;29;19926;-49
2022/02/27 08:11:12;;;;;;;;;;;11.90;96.90;;;;;;4950230;29;20587;-49
2022/02/27 08:13:39;;;;;;;;;;;12.00;97.10;;;;;;4951829;28;20018;-49
2022/02/27 08:16:06;;;;;;;;;;;12.30;96.20;;;;;;4952740;28;19947;-49
2022/02/27 08:18:33;;;;;;;;;;;13.10;94.40;;;;;;4951043;29;20378;-50
2022/02/27 08:21:00;;;;;;;;;;;13.10;94.80;;;;;;4959624;28;20386;-49
2022/02/27 08:23:31;;;;;;;;;;;13.10;93.30;;;;;;4968371;28;19933;-49
2022/02/27 08:25:59;;;;;;;;;;;12.00;93.80;;;;;;4952155;28;20017;-49
2022/02/27 08:28:26;;;;;;;;;;;11.50;95.10;;;;;;4950687;28;19973;-49
2022/02/27 08:30:53;;;;;;;;;;;12.00;95.60;;;;;;4951224;28;20306;-49
2022/02/27 08:33:20;;;;;;;;;;;11.70;94.40;;;;;;4950630;28;19930;-49
2022/02/27 08:35:46;;;;;;;;;;;11.50;95.10;;;;;;4950362;29;19974;-49
2022/02/27 08:38:13;;;;;;;;;;;11.60;94.00;;;;;;4950802;28;19942;-48
2022/02/27 08:40:41;;;;;;;;;;;11.90;94.70;;;;;;4947322;29;19927;-49
2022/02/27 08:43:08;;;;;;;;;;;11.70;93.50;;;;;;4950259;28;19981;-50
2022/02/27 08:45:35;;;;;;;;;;;10.90;93.80;;;;;;4950590;28;19931;-49
2022/02/27 08:48:02;;;;;;;;;;;11.90;92.60;;;;;;4950652;28;19926;-49
2022/02/27 08:50:29;;;;;;;;;;;12.00;92.50;;;;;;4949791;28;20013;-49
2022/02/27 08:52:55;;;;;;;;;;;12.80;92.00;;;;;;4952015;28;19930;-49
2022/02/27 08:55:23;;;;;;;;;;;14.30;87.20;;;;;;4953771;28;20395;-49
2022/02/27 08:57:51;;;;;;;;;;;14.70;83.10;;;;;;4954219;28;19954;-50
2022/02/27 09:00:19;;;;;;;;;;;14.90;84.50;;;;;;4950779;28;20018;-49
2022/02/27 09:02:46;;;;;;;;;;;16.20;81.40;;;;;;4950446;28;20021;-49
2022/02/27 09:05:14;;;;;;;;;;;17.70;77.50;;;;;;4954021;28;20313;-50
2022/02/27 09:07:41;;;;;;;;;;;18.60;69.80;;;;;;4953589;28;19930;-49
2022/02/27 09:10:12;;;;;;;;;;;18.80;70.80;;;;;;4954366;28;19989;-49
2022/02/27 09:12:41;;;;;;;;;;;20.10;68.00;;;;;;4954126;28;19935;-48
2022/02/27 09:15:10;;;;;;;;;;;22.00;61.70;;;;;;4953718;28;19937;-49
2022/02/27 09:17:37;;;;;;;;;;;23.10;58.00;;;;;;4953906;28;19963;-50
2022/02/27 09:20:04;;;;;;;;;;;23.00;58.30;;;;;;4954088;28;19930;-50
2022/02/27 09:22:31;;;;;;;;;;;23.00;56.10;;;;;;4953281;28;20026;-50
2022/02/27 09:24:57;;;;;;;;;;;23.20;55.40;;;;;;4953509;28;20390;-51
2022/02/27 09:27:24;;;;;;;;;;;22.70;52.50;;;;;;4953447;28;19931;-51
2022/02/27 09:29:51;;;;;;;;;;;22.40;54.40;;;;;;4956375;28;19927;-50
2022/02/27 09:32:19;;;;;;;;;;;22.90;51.80;;;;;;4953593;28;19926;-50
2022/02/27 09:34:46;;;;;;;;;;;21.60;52.60;;;;;;4951099;28;19979;-50
2022/02/27 09:37:13;;;;;;;;;;;20.50;54.50;;;;;;4955551;28;19937;-50
2022/02/27 09:39:40;;;;;;;;;;;20.70;54.70;;;;;;4950216;29;19927;-50
2022/02/27 09:42:07;;;;;;;;;;;21.00;53.30;;;;;;4953391;28;19986;-50
2022/02/27 09:44:37;;;;;;;;;;;20.50;55.20;;;;;;4950898;29;19937;-50
2022/02/27 09:47:04;;;;;;;;;;;20.50;56.10;;;;;;4947561;28;20016;-50
2022/02/27 09:49:32;;;;;;;;;;;20.30;54.40;;;;;;4951059;28;19926;-50
2022/02/27 09:51:59;;;;;;;;;;;19.50;52.00;;;;;;4951052;29;19934;-51
2022/02/27 09:54:26;;;;;;;;;;;19.80;54.90;;;;;;4951307;28;19931;-50
2022/02/27 09:56:53;;;;;;;;;;;20.10;53.30;;;;;;4950215;28;19931;-51
2022/02/27 09:59:20;;;;;;;;;;;20.20;53.00;;;;;;4951792;28;19935;-50
2022/02/27 10:01:57;;;;;;;;;;;21.00;52.90;;;;;;4952898;29;20604;-50
2022/02/27 10:04:25;;;;;;;;;;;21.40;53.40;;;;;;4952960;28;20985;-50
2022/02/27 10:06:53;;;;;;;;;;;21.00;51.90;;;;;;4953724;28;20401;-50
2022/02/27 10:09:24;;;;;;;;;;;20.00;53.70;;;;;;4955029;29;20391;-52
2022/02/27 10:11:51;;;;;;;;;;;19.60;53.70;;;;;;4954962;28;20020;-51
2022/02/27 10:14:24;;;;;;;;;;;19.70;54.70;;;;;;4953209;28;19930;-50
2022/02/27 10:16:51;;;;;;;;;;;19.40;51.00;;;;;;4948226;29;19926;-50
2022/02/27 10:19:19;;;;;;;;;;;19.70;54.10;;;;;;4953109;28;19931;-50
2022/02/27 10:21:46;;;;;;;;;;;20.30;53.60;;;;;;4953637;29;20323;-50
2022/02/27 10:24:15;;;;;;;;;;;20.20;55.30;;;;;;4952231;28;20021;-50
2022/02/27 10:26:44;;;;;;;;;;;19.60;54.90;;;;;;4954188;29;19961;-50
2022/02/27 10:29:16;;;;;;;;;;;19.90;54.90;;;;;;4953390;28;19927;-50
2022/02/27 10:31:43;;;;;;;;;;;18.50;50.70;;;;;;4954436;29;19973;-50
2022/02/27 10:34:13;;;;;;;;;;;19.40;56.00;;;;;;4952441;28;19927;-50
2022/02/27 10:36:50;;;;;;;;;;;19.90;52.20;;;;;;4953252;28;19949;-50
2022/02/27 10:39:27;;;;;;;;;;;18.20;53.90;;;;;;4953325;29;19934;-50
2022/02/27 10:41:54;;;;;;;;;;;18.70;54.80;;;;;;4956442;28;20460;-50
2022/02/27 10:44:22;;;;;;;;;;;18.50;57.10;;;;;;4952100;29;19974;-50
2022/02/27 10:46:49;;;;;;;;;;;18.30;57.70;;;;;;4953842;29;19985;-50
2022/02/27 10:49:30;;;;;;;;;;;17.90;56.90;;;;;;4953019;28;19934;-50
2022/02/27 10:52:09;;;;;;;;;;;17.90;57.30;;;;;;4949801;28;20001;-50
2022/02/27 10:54:41;;;;;;;;;;;18.70;57.10;;;;;;4952927;29;20570;-50
2022/02/27 10:57:10;;;;;;;;;;;18.40;56.40;;;;;;4953336;29;19931;-50
2022/02/27 10:59:38;;;;;;;;;;;18.40;57.60;;;;;;4953077;29;20381;-50
2022/02/27 11:02:05;;;;;;;;;;;17.00;58.90;;;;;;4952839;28;19966;-50
2022/02/27 11:04:34;;;;;;;;;;;14.90;66.00;;;;;;4953527;29;19982;-50
2022/02/27 11:07:02;;;;;;;;;;;11.90;73.40;;;;;;4943937;29;19927;-49
2022/02/27 11:09:29;;;;;;;;;;;;;;;;;;4952538;28;19934;-49
2022/02/27 11:11:57;;;;;;;;;;;10.50;79.90;;;;;;4952270;28;19985;-49
2022/02/27 11:14:25;;;;;;;;;;;;;;;;;;4947400;28;19934;-49
2022/02/27 11:16:52;;;;;;;;;;;;;;;;;;4934231;29;19927;-49
2022/02/27 11:19:19;;;;;;;;;;;;;;;;;;4952469;29;20017;-49
2022/02/27 11:21:46;;;;;;;;;;;;;;;;;;4952545;29;19934;-49
2022/02/27 11:24:13;;;;;;;;;;;;;;;;;;4952507;28;19970;-49
2022/02/27 11:26:40;;;;;;;;;;;10.60;79.90;;;;;;4951860;29;19989;-49
2022/02/27 11:29:10;;;;;;;;;;;10.70;82.70;;;;;;4952160;28;19926;-49
2022/02/27 11:31:37;;;;;;;;;;;;;;;;;;4952882;29;19926;-49
2022/02/27 11:34:07;;;;;;;;;;;;;;;;;;4952640;29;19997;-49
2022/02/27 11:36:33;;;;;;;;;;;;;;;;;;4953425;29;19926;-49
2022/02/27 11:39:01;;;;;;;;;;;10.90;80.60;;;;;;4953028;29;19930;-49
2022/02/27 11:41:28;;;;;;;;;;;;;;;;;;4952833;29;19954;-49
2022/02/27 11:43:57;;;;;;;;;;;10.80;85.90;;;;;;4953027;29;19981;-49
2022/02/27 11:46:24;;;;;;;;;;;;;;;;;;4953132;28;20398;-49
2022/02/27 11:49:09;;;;;;;;;;;10.90;84.90;;;;;;4952719;29;19998;-49
2022/02/27 11:51:36;;;;;;;;;;;;;;;;;;4942504;29;20355;-49
2022/02/27 11:54:06;;;;;;;;;;;;;;;;;;4952842;29;19930;-50
2022/02/27 11:56:33;;;;;;;;;;;;;;;;;;4953109;29;19930;-49
2022/02/27 11:59:00;;;;;;;;;;;;;;;;;;4950946;28;19934;-49
2022/02/27 12:01:37;;;;;;;;;;;10.40;84.70;;;;;;4951447;29;19981;-49
2022/02/27 12:04:04;;;;;;;;;;;;;;;;;;4951348;29;20412;-49
2022/02/27 12:06:31;;;;;;;;;;;;;;;;;;4951891;29;19927;-50
2022/02/27 12:08:58;;;;;;;;;;;;;;;;;;4952064;29;19977;-49
2022/02/27 12:11:38;;;;;;;;;;;9.70;86.60;;;;;;4951792;29;20371;-49
2022/02/27 12:14:06;;;;;;;;;;;;;;;;;;4951809;28;19931;-49
2022/02/27 12:16:33;;;;;;;;;;;;;;;;;;4950949;29;19946;-48
2022/02/27 12:19:03;;;;;;;;;;;10.20;88.80;;;;;;4952021;28;19950;-49
2022/02/27 12:21:30;;;;;;;;;;;;;;;;;;4951679;28;19982;-50
2022/02/27 12:23:57;;;;;;;;;;;;;;;;;;4951702;29;19926;-49
2022/02/27 12:26:24;;;;;;;;;;;;;;;;;;4952071;28;19927;-49
2022/02/27 12:28:51;;;;;;;;;;;;;;;;;;4954778;29;20605;-50
2022/02/27 12:31:18;;;;;;;;;;;;;;;;;;4955605;29;19927;-49
2022/02/27 12:33:45;;;;;;;;;;;;;;;;;;4955372;29;19981;-49
2022/02/27 12:36:20;;;;;;;;;;;10.10;90.70;;;;;;4945348;29;20394;-49
2022/02/27 12:41:14;;;;;;;;;;;10.00;87.30;;;;;;4969207;23;20299;-56
2022/02/27 12:43:41;;;;;;;;;;;;;;;;;;4947981;29;19927;-55
2022/02/27 12:46:08;;;;;;;;;;;10.70;86.90;;;;;;4955120;29;19970;-57
2022/02/27 12:51:15;;;;;;;;;;;;;;;;;;4936603;29;19962;-58
2022/02/27 12:53:44;;;;;;;;;;;11.10;86.10;;;;;;4935731;29;19931;-57
2022/02/27 12:56:13;;;;;;;;;;;;;;;;;;4935865;29;19930;-56
2022/02/27 12:58:40;;;;;;;;;;;10.90;84.70;;;;;;4935578;29;19930;-57
2022/02/27 13:01:07;;;;;;;;;;;11.00;84.70;;;;;;4935222;29;19949;-56
2022/02/27 13:03:34;;;;;;;;;;;;;;;;;;4935382;29;19941;-55
2022/02/27 13:06:02;;;;;;;;;;;10.90;85.00;;;;;;4932576;29;20379;-57
2022/02/27 13:08:29;;;;;;;;;;;10.40;88.00;;;;;;4924681;29;19927;-54
2022/02/27 13:10:56;;;;;;;;;;;;;;;;;;4917903;29;20344;-55
2022/02/27 13:13:24;;;;;;;;;;;10.10;89.70;;;;;;4917584;29;20022;-55
2022/02/27 13:15:52;;;;;;;;;;;;;;;;;;4923729;29;19927;-55
2022/02/27 13:18:18;;;;;;;;;;;10.50;85.50;;;;;;4935101;29;19994;-55
2022/02/27 13:20:45;;;;;;;;;;;;;;;;;;4935638;29;19982;-55
2022/02/27 13:23:12;;;;;;;;;;;;;;;;;;4921677;29;20303;-56
2022/02/27 13:25:39;;;;;;;;;;;10.90;84.70;;;;;;4931357;29;19930;-56
2022/02/27 13:28:06;;;;;;;;;;;;;;;;;;4934950;29;20410;-57
2022/02/27 13:30:33;;;;;;;;;;;;;;;;;;4925407;29;19927;-56
2022/02/27 13:33:00;;;;;;;;;;;;;;;;;;4929218;29;20396;-56
2022/02/27 13:35:37;;;;;;;;;;;10.80;86.60;;;;;;4925834;29;20307;-56
2022/02/27 13:38:05;;;;;;;;;;;;;;;;;;4931829;29;19982;-56
2022/02/27 13:40:32;;;;;;;;;;;;;;;;;;4935046;29;19927;-56
2022/02/27 13:42:59;;;;;;;;;;;;;;;;;;4933432;29;19927;-56
2022/02/27 13:45:27;;;;;;;;;;;10.60;87.30;;;;;;4917206;29;19927;-56
2022/02/27 13:47:54;;;;;;;;;;;10.90;85.20;;;;;;4918775;29;19927;-56
2022/02/27 13:50:21;;;;;;;;;;;;;;;;;;4934839;29;19994;-56
2022/02/27 13:52:57;;;;;;;;;;;10.80;86.50;;;;;;4935001;29;19926;-56
2022/02/27 13:55:24;;;;;;;;;;;10.80;85.10;;;;;;4933869;29;20309;-56
2022/02/27 13:57:51;;;;;;;;;;;;;;;;;;4936108;29;20536;-56
2022/02/27 14:00:18;;;;;;;;;;;10.90;85.90;;;;;;4936011;29;20015;-56
2022/02/27 14:02:45;;;;;;;;;;;;;;;;;;4935948;29;19950;-56
2022/02/27 14:05:15;;;;;;;;;;;;;;;;;;4934582;29;20458;-56
2022/02/27 14:07:43;;;;;;;;;;;10.90;86.90;;;;;;4935558;29;19930;-56
2022/02/27 14:10:10;;;;;;;;;;;;;;;;;;4935387;29;19926;-56
2022/02/27 14:12:37;;;;;;;;;;;;;;;;;;4936145;29;19931;-56
2022/02/27 14:15:06;;;;;;;;;;;10.50;86.90;;;;;;4935391;29;19974;-56
2022/02/27 14:17:42;;;;;;;;;;;10.60;86.50;;;;;;4935755;29;19990;-56
2022/02/27 14:20:09;;;;;;;;;;;10.80;87.60;;;;;;4935376;29;20306;-56
2022/02/27 14:22:36;;;;;;;;;;;;;;;;;;4917075;29;20005;-56
2022/02/27 14:25:03;;;;;;;;;;;;;;;;;;4924606;29;19927;-56
2022/02/27 14:27:30;;;;;;;;;;;;;;;;;;4921966;29;19982;-56
2022/02/27 14:29:57;;;;;;;;;;;;;;;;;;4928412;29;19927;-56
2022/02/27 14:32:24;;;;;;;;;;;;;;;;;;4933565;29;20406;-56
2022/02/27 14:34:51;;;;;;;;;;;;;;;;;;4933900;29;19974;-56
2022/02/27 14:37:19;;;;;;;;;;;10.70;87.60;;;;;;4935092;29;19927;-56
2022/02/27 14:39:46;;;;;;;;;;;;;;;;;;4935129;29;19926;-56
2022/02/27 14:42:13;;;;;;;;;;;10.50;87.60;;;;;;4935245;29;19939;-56
2022/02/27 14:44:40;;;;;;;;;;;10.10;89.70;;;;;;4934863;29;20255;-56
2022/02/27 14:47:07;;;;;;;;;;;;;;;;;;4935424;29;19927;-56
2022/02/27 14:49:34;;;;;;;;;;;10.50;88.80;;;;;;4934635;29;19974;-56
2022/02/27 14:52:01;;;;;;;;;;;;;;;;;;4934565;29;19927;-56
2022/02/27 14:54:29;;;;;;;;;;;10.70;90.20;;;;;;4934551;29;19974;-56
2022/02/27 14:56:56;;;;;;;;;;;10.40;90.00;;;;;;4935238;29;19927;-56
2022/02/27 14:59:23;;;;;;;;;;;;;;;;;;4934839;29;20537;-56
2022/02/27 15:01:50;;;;;;;;;;;10.70;88.90;;;;;;4934853;29;19981;-56
2022/02/27 15:04:17;;;;;;;;;;;;;;;;;;4934564;29;19937;-56
2022/02/27 15:06:43;;;;;;;;;;;10.20;90.60;;;;;;4934842;29;19927;-56
2022/02/27 15:09:10;;;;;;;;;;;10.20;90.20;;;;;;4934659;29;20279;-56
2022/02/27 15:11:37;;;;;;;;;;;;;;;;;;4934397;29;20458;-56
2022/02/27 15:14:04;;;;;;;;;;;;;;;;;;4934508;29;19927;-55